Etusivu
METAR-TAF:

METAR-TAF

Lentoasemat :

Castlegar, Brittiläinen Kolumbia, Kanada

Leveyspiiri: 49-18N, Pituuspiiri: 117-38W, korkeus merenpinnasta: 495 m

Tämänhetkinen sää

Tämä raportti tehtiin 13 tuntia ja 19 minuuttia sitten, kello 01.00 UTC
Tuuli 4 kn etelästä/kaakosta
Lämpötila 19°C
Kosteus 46%
Ilmanpaine 1025 hPa
Näkyvyys: 24.1 km
selkeää

METAR: CYCG 290100Z 16004KT 15SM SKC 19/07 A3028 RMK LAST STFD OBS/NEXT 291500Z SLP260 DENSITY ALT 2100FT

Aika: 07:19 (14:19 UTC)

Sääennuste

Tämä raportti tehtiin 13 tuntia ja 41 minuuttia sitten, kello 00.38 UTC
Ennuste voimassa 29. päivästä klo 01 UTC - 29. päivään klo 04 UTC
Tuuli 10 kn etelästä
Näkyvyys: 10 km
Muutamia pilviä 23000 ft:n korkeudessa

TAF: CYCG 290038Z 2901/2904 19010KT P6SM FEW230 RMK NXT FCST WILL BE ISSUED AT 291445Z

Säähavainnot ja -ennusteet yli 4000 lentoasemalta (METAR- ja TAF-raportit).

Käytössä olevat sääasemat on merkitty karttaan keltaisilla ja punaisilla pisteillä.

Aseta hiiri pisteen päälle nähdäksesi sääaseman nimen.

Klikkaa sitten nähdäksesi säähavainnot ja -ennusteet.

Kartan vaihtaminen: klikkaa mustalla rastilla varustettuja vihreitä pisteitä, niin voit zoomata sisään; viivalla varustettua vihreää pistettä, niin voit zoomata ulos tai vihreitä nuolia, niin pääset viereisille kartoille.


METAR-TAF: